createdAt,value
2018-12-23T00:00:19.276Z,1007.08
2018-12-23T00:01:19.266Z,1007.07
2018-12-23T00:02:19.255Z,1007.06
2018-12-23T00:03:19.244Z,1007.07
2018-12-23T00:04:19.272Z,1007.07
2018-12-23T00:05:19.221Z,1007.06
2018-12-23T00:06:19.521Z,1007.09
2018-12-23T00:07:19.202Z,1007.08
2018-12-23T00:08:19.191Z,1007.07
2018-12-23T00:09:19.188Z,1007.10
2018-12-23T00:10:19.208Z,1007.12
2018-12-23T00:11:19.160Z,1007.10
2018-12-23T00:12:19.151Z,1007.09
2018-12-23T00:13:19.541Z,1007.10
2018-12-23T00:14:19.129Z,1007.11
2018-12-23T00:15:19.117Z,1007.11
2018-12-23T00:16:19.166Z,1007.15
2018-12-23T00:17:19.837Z,1007.15
2018-12-23T00:18:19.088Z,1007.15
2018-12-23T00:19:19.077Z,1007.18
2018-12-23T00:20:19.560Z,1007.16
2018-12-23T00:21:19.066Z,1007.13
2018-12-23T00:22:19.092Z,1007.11
2018-12-23T00:23:19.059Z,1007.10
2018-12-23T00:24:19.026Z,1007.12
2018-12-23T00:25:19.015Z,1007.12
2018-12-23T00:26:19.004Z,1007.07
2018-12-23T00:27:20.399Z,1007.13
2018-12-23T00:28:19.369Z,1007.12
2018-12-23T00:29:18.974Z,1007.13
2018-12-23T00:30:18.963Z,1007.13
2018-12-23T00:31:18.952Z,1007.14
2018-12-23T00:32:18.942Z,1007.09
2018-12-23T00:33:19.838Z,1007.08
2018-12-23T00:34:20.250Z,1007.09
2018-12-23T00:35:20.509Z,1007.09
2018-12-23T00:36:18.901Z,1007.11
2018-12-23T00:37:18.892Z,1007.08
2018-12-23T00:38:18.881Z,1007.13
2018-12-23T00:39:18.870Z,1007.13
2018-12-23T00:40:18.902Z,1007.11
2018-12-23T00:41:19.140Z,1007.10
2018-12-23T00:42:18.838Z,1007.08
2018-12-23T00:43:18.828Z,1007.12
2018-12-23T00:44:18.823Z,1007.10
2018-12-23T00:45:18.808Z,1007.17
2018-12-23T00:46:19.832Z,1007.14
2018-12-23T00:47:18.787Z,1007.18
2018-12-23T00:48:19.220Z,1007.14
2018-12-23T00:49:18.767Z,1007.18
2018-12-23T00:50:18.756Z,1007.18
2018-12-23T00:51:18.747Z,1007.17
2018-12-23T00:52:18.790Z,1007.16
2018-12-23T00:53:18.725Z,1007.16
2018-12-23T00:54:18.716Z,1007.12
2018-12-23T00:55:18.704Z,1007.08
2018-12-23T00:56:18.694Z,1007.07
2018-12-23T00:57:19.359Z,1007.08
2018-12-23T00:58:18.717Z,1007.11
2018-12-23T00:59:18.666Z,1007.17
2018-12-23T01:00:18.655Z,1007.15
2018-12-23T01:01:19.026Z,1007.14
2018-12-23T01:02:18.632Z,1007.20
2018-12-23T01:03:18.623Z,1007.17
2018-12-23T01:04:18.650Z,1007.16
2018-12-23T01:05:18.603Z,1007.21
2018-12-23T01:06:18.592Z,1007.25
2018-12-23T01:07:18.585Z,1007.29
2018-12-23T01:08:18.570Z,1007.31
2018-12-23T01:09:18.561Z,1007.37
2018-12-23T01:10:18.597Z,1007.35
2018-12-23T01:11:18.541Z,1007.38
2018-12-23T01:12:18.531Z,1007.32
2018-12-23T01:13:18.996Z,1007.34
2018-12-23T01:14:18.509Z,1007.35
2018-12-23T01:15:18.499Z,1007.36
2018-12-23T01:16:18.528Z,1007.32
2018-12-23T01:17:18.487Z,1007.28
2018-12-23T01:18:18.467Z,1007.31
2018-12-23T01:19:18.457Z,1007.36
2018-12-23T01:20:18.485Z,1007.35
2018-12-23T01:21:18.437Z,1007.37
2018-12-23T01:22:18.464Z,1007.36
2018-12-23T01:23:18.416Z,1007.39
2018-12-23T01:24:18.407Z,1007.38
2018-12-23T01:25:18.398Z,1007.39
2018-12-23T01:26:18.387Z,1007.43
2018-12-23T01:27:18.375Z,1007.39
2018-12-23T01:28:18.663Z,1007.37
2018-12-23T01:29:18.359Z,1007.42
2018-12-23T01:30:18.349Z,1007.37
2018-12-23T01:31:18.633Z,1007.40
2018-12-23T01:32:18.323Z,1007.38
2018-12-23T01:33:18.312Z,1007.39
2018-12-23T01:34:18.350Z,1007.40
2018-12-23T01:35:18.295Z,1007.39
2018-12-23T01:36:18.282Z,1007.40
2018-12-23T01:37:18.277Z,1007.48
2018-12-23T01:38:18.537Z,1007.40
2018-12-23T01:39:18.251Z,1007.43
2018-12-23T01:40:18.284Z,1007.38
2018-12-23T01:41:18.265Z,1007.40
2018-12-23T01:42:18.220Z,1007.37
2018-12-23T01:43:18.213Z,1007.38
2018-12-23T01:44:18.201Z,1007.32
2018-12-23T01:45:18.476Z,1007.34
2018-12-23T01:46:18.259Z,1007.34
2018-12-23T01:47:18.192Z,1007.37
2018-12-23T01:48:18.160Z,1007.37
2018-12-23T01:49:18.149Z,1007.36
2018-12-23T01:50:18.137Z,1007.38
2018-12-23T01:51:18.128Z,1007.33
2018-12-23T01:52:18.439Z,1007.35
2018-12-23T01:53:18.108Z,1007.38
2018-12-23T01:54:18.096Z,1007.35
2018-12-23T01:55:18.085Z,1007.32
2018-12-23T01:56:18.075Z,1007.31
2018-12-23T01:57:18.064Z,1007.36
2018-12-23T01:58:18.095Z,1007.35
2018-12-23T01:59:18.323Z,1007.34
2018-12-23T02:00:18.033Z,1007.38
2018-12-23T02:01:18.023Z,1007.42
2018-12-23T02:02:18.014Z,1007.43
2018-12-23T02:03:18.006Z,1007.48
2018-12-23T02:04:18.052Z,1007.45
2018-12-23T02:05:17.982Z,1007.45
2018-12-23T02:06:18.249Z,1007.45
2018-12-23T02:07:17.962Z,1007.48
2018-12-23T02:08:17.954Z,1007.51
2018-12-23T02:09:17.940Z,1007.50
2018-12-23T02:10:17.971Z,1007.52
2018-12-23T02:11:17.924Z,1007.51
2018-12-23T02:12:17.910Z,1007.53
2018-12-23T02:13:18.179Z,1007.55
2018-12-23T02:14:17.889Z,1007.59
2018-12-23T02:15:17.877Z,1007.61
2018-12-23T02:16:17.908Z,1007.62
2018-12-23T02:17:17.856Z,1007.60
2018-12-23T02:18:17.845Z,1007.59
2018-12-23T02:19:17.835Z,1007.57
2018-12-23T02:20:18.111Z,1007.63
2018-12-23T02:21:17.816Z,1007.59
2018-12-23T02:22:17.883Z,1007.58
2018-12-23T02:23:17.800Z,1007.57
2018-12-23T02:24:17.784Z,1007.58
2018-12-23T02:25:17.774Z,1007.61
2018-12-23T02:26:17.763Z,1007.63
2018-12-23T02:27:18.057Z,1007.60
2018-12-23T02:28:17.781Z,1007.57
2018-12-23T02:29:17.735Z,1007.61
2018-12-23T02:30:17.731Z,1007.55
2018-12-23T02:31:17.713Z,1007.59
2018-12-23T02:32:17.706Z,1007.56
2018-12-23T02:33:17.691Z,1007.51
2018-12-23T02:34:18.002Z,1007.53
2018-12-23T02:35:17.669Z,1007.56
2018-12-23T02:36:17.732Z,1007.51
2018-12-23T02:37:17.649Z,1007.46
2018-12-23T02:38:17.639Z,1007.50
2018-12-23T02:39:17.639Z,1007.55
2018-12-23T02:40:17.703Z,1007.48
2018-12-23T02:41:17.912Z,1007.49
2018-12-23T02:42:17.602Z,1007.52
2018-12-23T02:43:17.595Z,1007.53
2018-12-23T02:44:17.578Z,1007.49
2018-12-23T02:45:17.567Z,1007.49
2018-12-23T02:46:17.593Z,1007.50
2018-12-23T02:47:17.546Z,1007.48
2018-12-23T02:48:17.813Z,1007.46
2018-12-23T02:49:17.528Z,1007.54
2018-12-23T02:50:17.519Z,1007.58
2018-12-23T02:51:17.521Z,1007.57
2018-12-23T02:52:17.530Z,1007.56
2018-12-23T02:53:17.483Z,1007.56
2018-12-23T02:54:17.474Z,1007.56
2018-12-23T02:55:17.463Z,1007.56
2018-12-23T02:56:17.451Z,1007.58
2018-12-23T02:57:17.442Z,1007.65
2018-12-23T02:58:17.501Z,1007.64
2018-12-23T02:59:17.422Z,1007.65
2018-12-23T03:01:39.359Z,1007.68
2018-12-23T03:02:39.006Z,1007.68
2018-12-23T03:03:38.996Z,1007.72
2018-12-23T03:04:39.211Z,1007.69
2018-12-23T03:05:38.983Z,1007.71
2018-12-23T03:06:38.966Z,1007.72
2018-12-23T03:07:39.327Z,1007.72
2018-12-23T03:08:38.944Z,1007.70
2018-12-23T03:09:38.934Z,1007.71
2018-12-23T03:10:38.923Z,1007.67
2018-12-23T03:11:38.948Z,1007.70
2018-12-23T03:12:38.905Z,1007.70
2018-12-23T03:13:38.918Z,1007.65
2018-12-23T03:14:39.158Z,1007.67
2018-12-23T03:15:38.870Z,1007.74
2018-12-23T03:16:38.859Z,1007.76
2018-12-23T03:17:38.850Z,1007.71
2018-12-23T03:18:38.841Z,1007.76
2018-12-23T03:19:39.128Z,1007.75
2018-12-23T03:20:38.819Z,1007.64
2018-12-23T03:21:38.810Z,1007.67
2018-12-23T03:22:38.797Z,1007.56
2018-12-23T03:23:38.786Z,1007.59
2018-12-23T03:24:38.776Z,1007.67
2018-12-23T03:25:38.803Z,1007.64
2018-12-23T03:26:39.758Z,1007.57
2018-12-23T03:27:38.744Z,1007.62
2018-12-23T03:28:38.736Z,1007.63
2018-12-23T03:29:38.726Z,1007.63
2018-12-23T03:30:38.714Z,1007.64
2018-12-23T03:31:38.761Z,1007.65
2018-12-23T03:32:38.705Z,1007.62
2018-12-23T03:33:38.961Z,1007.62
2018-12-23T03:34:38.671Z,1007.60
2018-12-23T03:35:38.663Z,1007.60
2018-12-23T03:36:38.650Z,1007.54
2018-12-23T03:37:38.851Z,1007.60
2018-12-23T03:38:38.629Z,1007.55
2018-12-23T03:39:38.618Z,1007.48
2018-12-23T03:40:38.615Z,1007.50
2018-12-23T03:41:38.607Z,1007.49
2018-12-23T03:42:38.586Z,1007.49
2018-12-23T03:43:38.602Z,1007.54
2018-12-23T03:44:38.566Z,1007.54
2018-12-23T03:45:38.836Z,1007.55
2018-12-23T03:46:38.544Z,1007.55
2018-12-23T03:47:38.537Z,1007.57
2018-12-23T03:48:38.535Z,1007.54
2018-12-23T03:49:38.542Z,1007.53
2018-12-23T03:50:38.503Z,1007.54
2018-12-23T03:51:38.495Z,1007.51
2018-12-23T03:52:38.764Z,1007.55
2018-12-23T03:53:39.132Z,1007.50
2018-12-23T03:54:38.464Z,1007.51
2018-12-23T03:55:38.500Z,1007.51
2018-12-23T03:56:38.443Z,1007.53
2018-12-23T03:57:38.430Z,1007.55
2018-12-23T03:58:38.420Z,1007.58
2018-12-23T03:59:38.694Z,1007.55
2018-12-23T04:00:38.403Z,1007.59
2018-12-23T04:01:38.415Z,1007.55
2018-12-23T04:02:38.378Z,1007.55
2018-12-23T04:03:38.369Z,1007.48
2018-12-23T04:04:38.357Z,1007.60
2018-12-23T04:05:38.350Z,1007.55
2018-12-23T04:06:38.685Z,1007.62
2018-12-23T04:07:38.350Z,1007.61
2018-12-23T04:08:38.314Z,1007.62
2018-12-23T04:09:38.304Z,1007.60
2018-12-23T04:10:38.310Z,1007.58
2018-12-23T04:11:38.284Z,1007.55
2018-12-23T04:12:38.273Z,1007.53
2018-12-23T04:13:38.309Z,1007.44
2018-12-23T04:14:38.251Z,1007.45
2018-12-23T04:15:38.254Z,1007.45
2018-12-23T04:16:38.234Z,1007.49
2018-12-23T04:17:38.222Z,1007.54
2018-12-23T04:18:38.210Z,1007.50
2018-12-23T04:19:38.505Z,1007.52
2018-12-23T04:20:38.190Z,1007.52
2018-12-23T04:21:38.177Z,1007.55
2018-12-23T04:22:38.170Z,1007.50
2018-12-23T04:23:38.159Z,1007.48
2018-12-23T04:24:38.145Z,1007.48
2018-12-23T04:25:38.162Z,1007.48
2018-12-23T04:26:38.124Z,1007.51
2018-12-23T04:27:38.112Z,1007.51
2018-12-23T04:28:38.216Z,1007.50
2018-12-23T04:29:38.092Z,1007.49
2018-12-23T04:30:38.081Z,1007.50
2018-12-23T04:31:38.400Z,1007.56
2018-12-23T04:32:38.063Z,1007.62
2018-12-23T04:33:38.785Z,1007.56
2018-12-23T04:34:38.044Z,1007.63
2018-12-23T04:35:38.028Z,1007.62
2018-12-23T04:36:38.018Z,1007.58
2018-12-23T04:37:38.036Z,1007.64
2018-12-23T04:38:37.999Z,1007.60
2018-12-23T04:39:37.986Z,1007.57
2018-12-23T04:40:37.980Z,1007.60
2018-12-23T04:41:37.964Z,1007.57
2018-12-23T04:42:37.956Z,1007.63
2018-12-23T04:43:37.969Z,1007.57
2018-12-23T04:44:37.936Z,1007.55
2018-12-23T04:45:37.922Z,1007.52
2018-12-23T04:46:37.911Z,1007.49
2018-12-23T04:47:37.904Z,1007.53
2018-12-23T04:48:37.890Z,1007.56
2018-12-23T04:49:38.389Z,1007.56
2018-12-23T04:50:37.873Z,1007.59
2018-12-23T04:51:37.863Z,1007.52
2018-12-23T04:52:37.850Z,1007.59
2018-12-23T04:53:37.837Z,1007.53
2018-12-23T04:54:37.829Z,1007.57
2018-12-23T04:55:37.842Z,1007.57
2018-12-23T04:56:38.116Z,1007.54
2018-12-23T04:57:37.798Z,1007.46
2018-12-23T04:58:37.789Z,1007.42
2018-12-23T04:59:37.775Z,1007.46
2018-12-23T05:00:37.767Z,1007.46
2018-12-23T05:01:37.781Z,1007.51
2018-12-23T05:02:37.745Z,1007.48
2018-12-23T05:03:42.855Z,1007.50
2018-12-23T05:04:38.722Z,1007.49
2018-12-23T05:05:37.711Z,1007.51
2018-12-23T05:06:43.220Z,1007.49
2018-12-23T05:07:38.878Z,1007.45
2018-12-23T05:08:37.680Z,1007.45
2018-12-23T05:09:37.673Z,1007.48
2018-12-23T05:10:37.941Z,1007.44
2018-12-23T05:11:37.649Z,1007.43
2018-12-23T05:12:37.637Z,1007.44
2018-12-23T05:13:37.655Z,1007.39
2018-12-23T05:14:37.616Z,1007.45
2018-12-23T05:15:37.606Z,1007.49
2018-12-23T05:16:37.595Z,1007.50
2018-12-23T05:17:37.869Z,1007.44
2018-12-23T05:18:37.575Z,1007.47
2018-12-23T05:19:37.589Z,1007.40
2018-12-23T05:20:37.556Z,1007.40
2018-12-23T05:21:37.543Z,1007.42
2018-12-23T05:22:37.537Z,1007.47
2018-12-23T05:23:37.522Z,1007.46
2018-12-23T05:24:37.788Z,1007.46
2018-12-23T05:25:37.571Z,1007.44
2018-12-23T05:26:37.489Z,1007.37
2018-12-23T05:27:37.479Z,1007.34
2018-12-23T05:28:37.471Z,1007.37
2018-12-23T05:29:37.456Z,1007.33
2018-12-23T05:30:37.453Z,1007.31
2018-12-23T05:31:37.465Z,1007.30
2018-12-23T05:32:37.426Z,1007.29
2018-12-23T05:33:37.416Z,1007.29
2018-12-23T05:34:37.406Z,1007.27
2018-12-23T05:35:37.394Z,1007.29
2018-12-23T05:36:37.385Z,1007.29
2018-12-23T05:37:37.691Z,1007.27
2018-12-23T05:38:37.365Z,1007.30
2018-12-23T05:39:37.358Z,1007.33
2018-12-23T05:40:37.344Z,1007.33
2018-12-23T05:41:37.331Z,1007.39
2018-12-23T05:42:37.321Z,1007.38
2018-12-23T05:43:37.372Z,1007.36
2018-12-23T05:44:37.581Z,1007.37
2018-12-23T05:45:37.295Z,1007.39
2018-12-23T05:46:37.279Z,1007.38
2018-12-23T05:47:37.274Z,1007.39
2018-12-23T05:48:37.260Z,1007.42
2018-12-23T05:49:37.274Z,1007.39
2018-12-23T05:50:37.237Z,1007.40
2018-12-23T05:51:37.507Z,1007.45
2018-12-23T05:52:37.217Z,1007.47
2018-12-23T05:53:37.207Z,1007.52
2018-12-23T05:54:37.196Z,1007.54
2018-12-23T05:55:37.212Z,1007.52
2018-12-23T05:56:37.174Z,1007.53
2018-12-23T05:57:37.163Z,1007.59
2018-12-23T05:58:37.445Z,1007.54
2018-12-23T05:59:37.146Z,1007.57
2018-12-23T06:00:37.133Z,1007.53
2018-12-23T06:01:37.409Z,1007.53
2018-12-23T06:02:37.114Z,1007.49
2018-12-23T06:03:37.103Z,1007.48
2018-12-23T06:04:37.104Z,1007.51
2018-12-23T06:05:37.387Z,1007.54
2018-12-23T06:06:37.073Z,1007.53
2018-12-23T06:07:38.123Z,1007.56
2018-12-23T06:08:37.047Z,1007.51
2018-12-23T06:09:37.038Z,1007.53
2018-12-23T06:10:37.026Z,1007.58
2018-12-23T06:11:37.019Z,1007.55
2018-12-23T06:12:37.286Z,1007.54
2018-12-23T06:13:37.062Z,1007.57
2018-12-23T06:14:36.985Z,1007.62
2018-12-23T06:15:36.974Z,1007.58
2018-12-23T06:16:36.965Z,1007.60
2018-12-23T06:17:36.960Z,1007.55
2018-12-23T06:18:36.943Z,1007.61
2018-12-23T06:19:37.301Z,1007.54
2018-12-23T06:20:36.923Z,1007.52
2018-12-23T06:21:36.912Z,1007.50
2018-12-23T06:22:36.901Z,1007.60
2018-12-23T06:23:36.894Z,1007.60
2018-12-23T06:24:36.880Z,1007.62
2018-12-23T06:25:36.998Z,1007.63
2018-12-23T06:26:37.139Z,1007.65
2018-12-23T06:27:36.853Z,1007.65
2018-12-23T06:28:36.839Z,1007.77
2018-12-23T06:29:36.827Z,1007.71
2018-12-23T06:30:36.818Z,1007.78
2018-12-23T06:31:36.874Z,1007.82
2018-12-23T06:32:36.797Z,1007.80
2018-12-23T06:33:37.080Z,1007.80
2018-12-23T06:34:36.777Z,1007.80
2018-12-23T06:35:36.776Z,1007.76
2018-12-23T06:36:36.755Z,1007.77
2018-12-23T06:37:36.873Z,1007.72
2018-12-23T06:38:36.738Z,1007.73
2018-12-23T06:39:36.723Z,1007.73
2018-12-23T06:40:36.991Z,1007.77
2018-12-23T06:41:36.701Z,1007.76
2018-12-23T06:42:36.693Z,1007.76
2018-12-23T06:43:36.754Z,1007.79
2018-12-23T06:44:36.670Z,1007.81
2018-12-23T06:45:36.660Z,1007.80
2018-12-23T06:46:36.650Z,1007.83
2018-12-23T06:47:36.945Z,1007.78
2018-12-23T06:48:36.628Z,1007.76
2018-12-23T06:49:36.690Z,1007.70
2018-12-23T06:50:36.608Z,1007.67
2018-12-23T06:51:36.610Z,1007.74
2018-12-23T06:52:36.586Z,1007.77
2018-12-23T06:53:36.576Z,1007.70
2018-12-23T06:54:36.848Z,1007.76
2018-12-23T06:55:36.835Z,1007.73
2018-12-23T06:56:36.551Z,1007.74
2018-12-23T06:57:36.533Z,1007.73
2018-12-23T06:58:36.523Z,1007.73
2018-12-23T06:59:36.512Z,1007.70
2018-12-23T07:00:36.501Z,1007.71
2018-12-23T07:01:36.556Z,1007.75
2018-12-23T07:02:36.486Z,1007.73
2018-12-23T07:03:36.469Z,1007.79
2018-12-23T07:04:36.462Z,1007.72
2018-12-23T07:05:36.455Z,1007.78
2018-12-23T07:06:36.447Z,1007.79
2018-12-23T07:07:36.798Z,1007.78
2018-12-23T07:08:36.433Z,1007.81
2018-12-23T07:09:36.407Z,1007.82
2018-12-23T07:10:36.395Z,1007.81
2018-12-23T07:11:36.385Z,1007.81
2018-12-23T07:12:36.376Z,1007.73
2018-12-23T07:13:36.850Z,1007.75
2018-12-23T07:14:36.650Z,1007.80
2018-12-23T07:15:36.348Z,1007.78
2018-12-23T07:16:36.335Z,1007.74
2018-12-23T07:17:36.324Z,1007.69
2018-12-23T07:18:36.312Z,1007.70
2018-12-23T07:19:36.343Z,1007.66
2018-12-23T07:20:36.290Z,1007.68
2018-12-23T07:21:36.572Z,1007.69
2018-12-23T07:22:36.270Z,1007.69
2018-12-23T07:23:36.258Z,1007.69
2018-12-23T07:24:36.249Z,1007.72
2018-12-23T07:25:36.289Z,1007.70
2018-12-23T07:26:36.232Z,1007.67
2018-12-23T07:27:36.311Z,1007.71
2018-12-23T07:28:36.714Z,1007.71
2018-12-23T07:29:36.212Z,1007.69
2018-12-23T07:30:36.264Z,1007.72
2018-12-23T07:31:36.330Z,1007.69
2018-12-23T07:32:36.165Z,1007.69
2018-12-23T07:33:36.156Z,1007.64
2018-12-23T07:34:36.144Z,1007.71
2018-12-23T07:35:36.412Z,1007.67
2018-12-23T07:36:36.122Z,1007.70
2018-12-23T07:37:36.154Z,1007.70
2018-12-23T07:38:36.105Z,1007.73
2018-12-23T07:39:36.092Z,1007.73
2018-12-23T07:40:36.081Z,1007.70
2018-12-23T07:41:36.760Z,1007.69
2018-12-23T07:42:38.378Z,1007.66
2018-12-23T07:43:37.754Z,1007.66
2018-12-23T07:44:36.054Z,1007.67
2018-12-23T07:45:36.757Z,1007.67
2018-12-23T07:46:36.021Z,1007.73
2018-12-23T07:47:36.007Z,1007.73
2018-12-23T07:48:35.997Z,1007.75
2018-12-23T07:49:36.639Z,1007.75
2018-12-23T07:50:35.980Z,1007.73
2018-12-23T07:51:35.968Z,1007.78
2018-12-23T07:52:35.957Z,1007.78
2018-12-23T07:53:36.136Z,1007.79
2018-12-23T07:54:36.038Z,1007.82
2018-12-23T07:55:35.970Z,1007.80
2018-12-23T07:56:36.192Z,1007.82
2018-12-23T07:57:35.908Z,1007.81
2018-12-23T07:58:35.900Z,1007.76
2018-12-23T07:59:35.882Z,1007.77
2018-12-23T08:00:35.870Z,1007.76
2018-12-23T08:01:35.925Z,1007.77
2018-12-23T08:02:35.978Z,1007.78
2018-12-23T08:03:36.404Z,1007.78
2018-12-23T08:04:35.829Z,1007.81
2018-12-23T08:05:35.933Z,1007.79
2018-12-23T08:06:35.953Z,1007.75
2018-12-23T08:07:36.717Z,1007.77
2018-12-23T08:08:36.716Z,1007.70
2018-12-23T08:09:35.778Z,1007.64
2018-12-23T08:10:36.384Z,1007.61
2018-12-23T08:11:35.796Z,1007.62
2018-12-23T08:12:35.893Z,1007.69
2018-12-23T08:13:36.717Z,1007.70
2018-12-23T08:14:35.893Z,1007.73
2018-12-23T08:15:35.717Z,1007.71
2018-12-23T08:16:35.751Z,1007.76
2018-12-23T08:17:35.986Z,1007.72
2018-12-23T08:18:36.715Z,1007.74
2018-12-23T08:19:35.816Z,1007.73
2018-12-23T08:20:35.793Z,1007.65
2018-12-23T08:21:35.825Z,1007.73
2018-12-23T08:22:35.641Z,1007.70
2018-12-23T08:23:35.730Z,1007.72
2018-12-23T08:24:36.068Z,1007.70
2018-12-23T08:25:36.024Z,1007.67
2018-12-23T08:26:36.109Z,1007.71
2018-12-23T08:27:35.904Z,1007.67
2018-12-23T08:28:35.768Z,1007.67
2018-12-23T08:29:35.567Z,1007.69
2018-12-23T08:30:35.689Z,1007.66
2018-12-23T08:31:35.776Z,1007.69
2018-12-23T08:32:35.858Z,1007.71
2018-12-23T08:33:35.599Z,1007.76
2018-12-23T08:34:35.514Z,1007.71
2018-12-23T08:35:35.600Z,1007.72
2018-12-23T08:36:36.915Z,1007.72
2018-12-23T08:37:35.780Z,1007.70
2018-12-23T08:38:35.544Z,1007.69
2018-12-23T08:39:35.463Z,1007.71
2018-12-23T08:40:35.571Z,1007.67
2018-12-23T08:41:35.443Z,1007.70
2018-12-23T08:42:35.431Z,1007.69
2018-12-23T08:43:35.489Z,1007.70
2018-12-23T08:44:35.410Z,1007.69
2018-12-23T08:45:35.594Z,1007.69
2018-12-23T08:46:39.219Z,1007.72
2018-12-23T08:47:35.380Z,1007.67
2018-12-23T08:48:35.824Z,1007.66
2018-12-23T08:49:35.405Z,1007.62
2018-12-23T08:50:35.357Z,1007.57
2018-12-23T08:51:35.339Z,1007.58
2018-12-23T08:52:35.422Z,1007.49
2018-12-23T08:53:35.322Z,1007.53
2018-12-23T08:54:35.305Z,1007.49
2018-12-23T08:55:35.644Z,1007.54
2018-12-23T08:56:35.387Z,1007.56
2018-12-23T08:57:35.492Z,1007.50
2018-12-23T08:58:35.341Z,1007.52
2018-12-23T08:59:35.502Z,1007.53
2018-12-23T09:00:35.335Z,1007.46
2018-12-23T09:01:35.636Z,1007.46
2018-12-23T09:02:35.231Z,1007.44
2018-12-23T09:03:35.210Z,1007.48
2018-12-23T09:04:35.203Z,1007.49
2018-12-23T09:05:35.190Z,1007.50
2018-12-23T09:06:35.180Z,1007.44
2018-12-23T09:07:35.213Z,1007.50
2018-12-23T09:08:35.615Z,1007.42
2018-12-23T09:09:35.150Z,1007.46
2018-12-23T09:10:35.310Z,1007.49
2018-12-23T09:11:42.668Z,1007.46
2018-12-23T09:12:36.156Z,1007.42
2018-12-23T09:13:35.106Z,1007.47
2018-12-23T09:14:35.099Z,1007.50
2018-12-23T09:15:35.378Z,1007.47
2018-12-23T09:16:35.075Z,1007.45
2018-12-23T09:17:35.065Z,1007.52
2018-12-23T09:18:35.349Z,1007.49
2018-12-23T09:19:35.745Z,1007.48
2018-12-23T09:20:35.041Z,1007.46
2018-12-23T09:21:35.744Z,1007.45
2018-12-23T09:22:36.087Z,1007.42
2018-12-23T09:23:35.062Z,1007.41
2018-12-23T09:24:35.062Z,1007.47
2018-12-23T09:25:35.037Z,1007.42
2018-12-23T09:26:35.746Z,1007.46
2018-12-23T09:27:34.963Z,1007.45
2018-12-23T09:28:35.746Z,1007.40
2018-12-23T09:29:35.329Z,1007.38
2018-12-23T09:30:35.800Z,1007.41
2018-12-23T09:31:34.974Z,1007.45
2018-12-23T09:32:34.955Z,1007.46
2018-12-23T09:33:35.742Z,1007.45
2018-12-23T09:34:35.704Z,1007.46
2018-12-23T09:35:34.875Z,1007.50
2018-12-23T09:36:35.316Z,1007.48
2018-12-23T09:37:34.871Z,1007.52
2018-12-23T09:38:34.856Z,1007.49
2018-12-23T09:39:34.837Z,1007.53
2018-12-23T09:40:34.825Z,1007.56
2018-12-23T09:41:34.812Z,1007.54
2018-12-23T09:42:34.936Z,1007.55
2018-12-23T09:43:35.098Z,1007.50
2018-12-23T09:44:34.840Z,1007.54
2018-12-23T09:45:34.770Z,1007.48
2018-12-23T09:46:34.766Z,1007.52
2018-12-23T09:47:34.748Z,1007.54
2018-12-23T09:48:34.814Z,1007.49
2018-12-23T09:49:34.728Z,1007.46
2018-12-23T09:50:35.120Z,1007.45
2018-12-23T09:51:34.708Z,1007.47
2018-12-23T09:52:34.696Z,1007.41
2018-12-23T09:53:34.687Z,1007.43
2018-12-23T09:54:34.991Z,1007.37
2018-12-23T09:55:34.671Z,1007.39
2018-12-23T09:56:34.657Z,1007.32
2018-12-23T09:57:34.937Z,1007.32
2018-12-23T09:58:34.656Z,1007.38
2018-12-23T09:59:34.622Z,1007.39
2018-12-23T10:00:34.888Z,1007.39
2018-12-23T10:01:34.602Z,1007.40
2018-12-23T10:02:34.594Z,1007.36
2018-12-23T10:03:34.583Z,1007.38
2018-12-23T10:04:35.703Z,1007.37
2018-12-23T10:05:34.740Z,1007.36
2018-12-23T10:06:35.191Z,1007.34
2018-12-23T10:07:34.646Z,1007.35
2018-12-23T10:08:34.717Z,1007.35
2018-12-23T10:09:34.625Z,1007.32
2018-12-23T10:10:34.602Z,1007.33
2018-12-23T10:11:35.080Z,1007.37
2018-12-23T10:12:34.824Z,1007.35
2018-12-23T10:13:34.634Z,1007.36
2018-12-23T10:14:34.653Z,1007.31
2018-12-23T10:15:34.649Z,1007.34
2018-12-23T10:16:34.507Z,1007.32
2018-12-23T10:17:34.497Z,1007.25
2018-12-23T10:18:35.079Z,1007.25
2018-12-23T10:19:34.532Z,1007.20
2018-12-23T10:20:34.402Z,1007.20
2018-12-23T10:21:34.391Z,1007.21
2018-12-23T10:22:34.386Z,1007.22
2018-12-23T10:23:34.426Z,1007.20
2018-12-23T10:24:34.630Z,1007.17
2018-12-23T10:25:34.806Z,1007.16
2018-12-23T10:26:34.345Z,1007.17
2018-12-23T10:27:34.330Z,1007.13
2018-12-23T10:28:34.429Z,1007.09
2018-12-23T10:29:34.307Z,1007.04
2018-12-23T10:30:34.375Z,1007.00
2018-12-23T10:31:34.285Z,1007.02
2018-12-23T10:32:34.723Z,1007.04
2018-12-23T10:33:34.284Z,1007.01
2018-12-23T10:34:34.415Z,1007.02
2018-12-23T10:35:34.240Z,1007.05
2018-12-23T10:36:34.395Z,1007.00
2018-12-23T10:37:34.222Z,1006.97
2018-12-23T10:38:34.213Z,1006.96
2018-12-23T10:39:34.537Z,1006.95
2018-12-23T10:40:34.359Z,1006.95
2018-12-23T10:41:34.177Z,1006.88
2018-12-23T10:42:34.241Z,1006.85
2018-12-23T10:43:34.155Z,1006.81
2018-12-23T10:44:34.147Z,1006.82
2018-12-23T10:45:34.136Z,1006.80
2018-12-23T10:46:34.557Z,1006.78
2018-12-23T10:47:34.112Z,1006.78
2018-12-23T10:48:34.365Z,1006.76
2018-12-23T10:49:34.140Z,1006.72
2018-12-23T10:50:34.090Z,1006.72
2018-12-23T10:51:34.157Z,1006.69
2018-12-23T10:52:34.258Z,1006.71
2018-12-23T10:53:35.099Z,1006.73
2018-12-23T10:54:36.140Z,1006.72
2018-12-23T10:55:34.066Z,1006.71
2018-12-23T10:56:34.183Z,1006.70
2018-12-23T10:57:34.021Z,1006.65
2018-12-23T10:58:33.994Z,1006.68
2018-12-23T10:59:34.106Z,1006.61
2018-12-23T11:00:34.435Z,1006.57
2018-12-23T11:01:34.732Z,1006.55
2018-12-23T11:02:34.125Z,1006.56
2018-12-23T11:03:34.879Z,1006.56
2018-12-23T11:04:34.729Z,1006.64
2018-12-23T11:05:33.924Z,1006.61
2018-12-23T11:06:34.450Z,1006.56
2018-12-23T11:07:34.213Z,1006.50
2018-12-23T11:08:34.699Z,1006.50
2018-12-23T11:09:34.693Z,1006.46
2018-12-23T11:10:33.865Z,1006.49
2018-12-23T11:11:34.691Z,1006.37
2018-12-23T11:12:34.731Z,1006.42
2018-12-23T11:13:33.833Z,1006.36
2018-12-23T11:14:34.132Z,1006.39
2018-12-23T11:15:33.812Z,1006.35
2018-12-23T11:16:33.801Z,1006.34
2018-12-23T11:17:33.795Z,1006.35
2018-12-23T11:18:33.854Z,1006.28
2018-12-23T11:19:33.769Z,1006.28
2018-12-23T11:20:33.800Z,1006.20
2018-12-23T11:21:34.052Z,1006.22
2018-12-23T11:22:33.738Z,1006.25
2018-12-23T11:23:33.729Z,1006.25
2018-12-23T11:24:34.070Z,1006.20
2018-12-23T11:25:33.707Z,1006.13
2018-12-23T11:26:33.705Z,1006.15
2018-12-23T11:27:33.824Z,1006.14
2018-12-23T11:28:34.210Z,1006.17
2018-12-23T11:29:33.666Z,1006.13
2018-12-23T11:30:33.996Z,1006.15
2018-12-23T11:31:33.671Z,1006.16
2018-12-23T11:32:33.734Z,1006.08
2018-12-23T11:33:33.802Z,1006.15
2018-12-23T11:34:34.346Z,1006.15
2018-12-23T11:35:34.434Z,1006.20
2018-12-23T11:36:33.893Z,1006.22
2018-12-23T11:37:33.798Z,1006.19
2018-12-23T11:38:35.686Z,1006.17
2018-12-23T11:39:33.618Z,1006.10
2018-12-23T11:40:33.545Z,1006.11
2018-12-23T11:41:33.533Z,1006.03
2018-12-23T11:42:33.937Z,1005.99
2018-12-23T11:43:33.511Z,1005.97
2018-12-23T11:44:33.506Z,1005.93
2018-12-23T11:45:33.567Z,1005.91
2018-12-23T11:46:33.697Z,1005.88
2018-12-23T11:47:33.500Z,1005.90
2018-12-23T11:48:33.880Z,1005.89
2018-12-23T11:49:33.920Z,1005.83
2018-12-23T11:50:33.597Z,1005.86
2018-12-23T11:51:33.620Z,1005.84
2018-12-23T11:52:33.414Z,1005.85
2018-12-23T11:53:33.736Z,1005.76
2018-12-23T11:54:33.870Z,1005.77
2018-12-23T11:55:33.427Z,1005.80
2018-12-23T11:56:33.786Z,1005.79
2018-12-23T11:57:33.537Z,1005.81
2018-12-23T11:58:33.368Z,1005.75
2018-12-23T11:59:34.403Z,1005.73
2018-12-23T12:00:33.426Z,1005.71
2018-12-23T12:01:33.327Z,1005.65
2018-12-23T12:02:33.312Z,1005.62
2018-12-23T12:03:33.655Z,1005.63
2018-12-23T12:04:33.292Z,1005.58
2018-12-23T12:05:33.275Z,1005.61
2018-12-23T12:06:33.293Z,1005.59